createdAt,value
2017-04-11T00:00:30.313Z,0
2017-04-11T00:01:40.852Z,0
2017-04-11T00:02:51.204Z,0
2017-04-11T00:04:01.509Z,0
2017-04-11T00:05:11.803Z,0
2017-04-11T00:06:22.086Z,0
2017-04-11T00:07:32.368Z,0
2017-04-11T00:08:42.366Z,0
2017-04-11T00:09:52.684Z,0
2017-04-11T00:11:03.005Z,0
2017-04-11T00:12:14.298Z,0
2017-04-11T00:13:24.828Z,0
2017-04-11T00:14:35.105Z,0
2017-04-11T00:15:45.390Z,0
2017-04-11T00:16:55.676Z,0
2017-04-11T00:18:05.676Z,0
2017-04-11T00:19:16.260Z,0
2017-04-11T00:20:26.240Z,0
2017-04-11T00:21:36.516Z,0
2017-04-11T00:22:46.804Z,0
2017-04-11T00:23:57.083Z,0
2017-04-11T00:25:07.357Z,0
2017-04-11T00:26:17.033Z,0
2017-04-11T00:27:27.336Z,0
2017-04-11T00:28:37.664Z,0
2017-04-11T00:29:47.953Z,0
2017-04-11T00:30:58.194Z,0
2017-04-11T00:32:08.501Z,0
2017-04-11T00:33:18.793Z,0
2017-04-11T00:34:29.077Z,0
2017-04-11T00:35:39.389Z,0
2017-04-11T00:36:49.611Z,0
2017-04-11T00:37:59.899Z,0
2017-04-11T00:39:10.303Z,0
2017-04-11T00:40:20.283Z,0
2017-04-11T00:41:30.582Z,0
2017-04-11T00:42:41.119Z,0
2017-04-11T00:43:51.465Z,0
2017-04-11T00:45:01.752Z,0
2017-04-11T00:46:12.043Z,0
2017-04-11T00:47:22.321Z,0
2017-04-11T00:48:32.536Z,0
2017-04-11T00:49:42.507Z,0
2017-04-11T00:50:52.792Z,0
2017-04-11T00:52:02.754Z,0
2017-04-11T00:53:13.055Z,0
2017-04-11T00:54:23.590Z,0
2017-04-11T00:55:33.875Z,0
2017-04-11T00:56:44.172Z,0
2017-04-11T00:57:54.459Z,0
2017-04-11T00:59:04.433Z,0
2017-04-11T01:00:14.989Z,0
2017-04-11T01:01:24.654Z,0
2017-04-11T01:02:34.646Z,0
2017-04-11T01:03:44.614Z,0
2017-04-11T01:04:54.896Z,0
2017-04-11T01:06:05.465Z,0
2017-04-11T01:07:15.755Z,0
2017-04-11T01:08:25.724Z,0
2017-04-11T01:09:36.018Z,0
2017-04-11T01:10:46.307Z,0
2017-04-11T01:11:56.568Z,0
2017-04-11T01:13:06.853Z,0
2017-04-11T01:14:16.829Z,0
2017-04-11T01:15:26.499Z,0
2017-04-11T01:16:36.776Z,0
2017-04-11T01:17:47.079Z,0
2017-04-11T01:18:57.359Z,0
2017-04-11T01:20:07.342Z,0
2017-04-11T01:21:16.995Z,0
2017-04-11T01:22:26.990Z,0
2017-04-11T01:23:37.584Z,0
2017-04-11T01:24:47.866Z,0
2017-04-11T01:25:58.155Z,0
2017-04-11T01:27:07.825Z,0
2017-04-11T01:28:17.913Z,0
2017-04-11T01:29:28.450Z,0
2017-04-11T01:30:38.426Z,0
2017-04-11T01:31:48.740Z,0
2017-04-11T01:32:58.717Z,0
2017-04-11T01:34:08.995Z,0
2017-04-11T01:35:19.545Z,0
2017-04-11T01:36:29.836Z,0
2017-04-11T01:37:39.812Z,0
2017-04-11T01:38:49.481Z,0
2017-04-11T01:39:59.759Z,0
2017-04-11T01:41:09.980Z,0
2017-04-11T01:42:20.285Z,0
2017-04-11T01:43:30.568Z,0
2017-04-11T01:44:40.843Z,0
2017-04-11T01:45:51.123Z,0
2017-04-11T01:47:01.656Z,0
2017-04-11T01:48:11.932Z,0
2017-04-11T01:49:22.223Z,0
2017-04-11T01:50:32.504Z,0
2017-04-11T01:51:42.789Z,0
2017-04-11T01:52:53.022Z,0
2017-04-11T01:54:03.312Z,0
2017-04-11T01:55:13.619Z,0
2017-04-11T01:56:23.903Z,0
2017-04-11T01:57:34.176Z,0
2017-04-11T01:58:44.146Z,0
2017-04-11T01:59:54.130Z,0
2017-04-11T02:01:04.111Z,0
2017-04-11T02:02:14.600Z,0
2017-04-11T02:03:24.899Z,0
2017-04-11T02:04:35.493Z,0
2017-04-11T02:05:45.773Z,0
2017-04-11T02:06:56.057Z,0
2017-04-11T02:08:06.041Z,0
2017-04-11T02:09:16.407Z,0
2017-04-11T02:10:26.628Z,0
2017-04-11T02:11:36.953Z,0
2017-04-11T02:12:47.240Z,0
2017-04-11T02:13:57.510Z,0
2017-04-11T02:15:07.492Z,0
2017-04-11T02:16:18.083Z,0
2017-04-11T02:17:28.383Z,0
2017-04-11T02:18:38.668Z,0
2017-04-11T02:19:48.323Z,0
2017-04-11T02:20:58.614Z,0
2017-04-11T02:22:09.144Z,0
2017-04-11T02:23:19.444Z,0
2017-04-11T02:24:29.415Z,0
2017-04-11T02:25:39.707Z,0
2017-04-11T02:26:49.671Z,0
2017-04-11T02:27:59.910Z,0
2017-04-11T02:29:10.204Z,0
2017-04-11T02:30:20.179Z,0
2017-04-11T02:31:30.470Z,0
2017-04-11T02:32:40.439Z,0
2017-04-11T02:33:51.011Z,0
2017-04-11T02:35:01.008Z,0
2017-04-11T02:36:11.290Z,0
2017-04-11T02:37:21.813Z,0
2017-04-11T02:38:32.112Z,0
2017-04-11T02:39:42.643Z,0
2017-04-11T02:40:52.617Z,0
2017-04-11T02:42:02.907Z,0
2017-04-11T02:43:13.496Z,0
2017-04-11T02:44:23.787Z,0
2017-04-11T02:45:34.400Z,0
2017-04-11T02:46:44.063Z,0
2017-04-11T02:47:54.044Z,0
2017-04-11T02:49:04.345Z,0
2017-04-11T02:50:14.332Z,0
2017-04-11T02:51:24.874Z,0
2017-04-11T02:52:35.166Z,0
2017-04-11T02:53:45.134Z,0
2017-04-11T02:54:55.427Z,0
2017-04-11T02:56:05.410Z,0
2017-04-11T02:57:16.181Z,0
2017-04-11T02:58:26.461Z,0
2017-04-11T02:59:36.429Z,0
2017-04-11T03:00:46.416Z,0
2017-04-11T03:01:56.702Z,0
2017-04-11T03:03:07.292Z,0
2017-04-11T03:04:17.584Z,0
2017-04-11T03:05:27.872Z,0
2017-04-11T03:06:37.535Z,0
2017-04-11T03:07:47.819Z,0
2017-04-11T03:08:58.098Z,0
2017-04-11T03:10:08.071Z,0
2017-04-11T03:11:18.063Z,0
2017-04-11T03:12:28.046Z,0
2017-04-11T03:13:38.332Z,0
2017-04-11T03:14:48.553Z,0
2017-04-11T03:15:58.537Z,0
2017-04-11T03:17:08.819Z,0
2017-04-11T03:18:19.137Z,0
2017-04-11T03:19:29.419Z,0
2017-04-11T03:20:39.638Z,0
2017-04-11T03:21:49.927Z,0
2017-04-11T03:22:59.591Z,0
2017-04-11T03:24:09.676Z,0
2017-04-11T03:25:19.965Z,0
2017-04-11T03:26:30.553Z,0
2017-04-11T03:27:40.844Z,0
2017-04-11T03:28:51.149Z,0
2017-04-11T03:30:01.441Z,0
2017-04-11T03:31:11.465Z,0
2017-04-11T03:32:21.718Z,0
2017-04-11T03:33:32.013Z,0
2017-04-11T03:34:42.295Z,0
2017-04-11T03:35:52.628Z,0
2017-04-11T03:37:02.911Z,0
2017-04-11T03:38:13.480Z,0
2017-04-11T03:39:23.460Z,0
2017-04-11T03:40:33.430Z,0
2017-04-11T03:41:43.715Z,0
2017-04-11T03:42:54.004Z,0
2017-04-11T03:44:04.230Z,0
2017-04-11T03:45:13.903Z,0
2017-04-11T03:46:24.182Z,0
2017-04-11T03:47:34.471Z,0
2017-04-11T03:48:44.766Z,0
2017-04-11T03:49:55.361Z,0
2017-04-11T03:51:05.345Z,0
2017-04-11T03:52:15.327Z,0
2017-04-11T03:53:25.297Z,0
2017-04-11T03:54:35.265Z,0
2017-04-11T03:55:45.796Z,0
2017-04-11T03:56:55.452Z,0
2017-04-11T03:58:05.733Z,0
2017-04-11T03:59:16.034Z,0
2017-04-11T04:00:26.321Z,8
2017-04-11T04:01:36.856Z,12
2017-04-11T04:02:46.570Z,16
2017-04-11T04:03:56.866Z,16
2017-04-11T04:05:06.853Z,16
2017-04-11T04:06:17.205Z,20
2017-04-11T04:07:27.739Z,28
2017-04-11T04:08:37.721Z,28
2017-04-11T04:09:47.692Z,32
2017-04-11T04:10:57.999Z,40
2017-04-11T04:12:07.971Z,48
2017-04-11T04:13:18.509Z,52
2017-04-11T04:14:28.502Z,60
2017-04-11T04:15:38.996Z,68
2017-04-11T04:16:48.988Z,72
2017-04-11T04:17:59.288Z,80
2017-04-11T04:19:09.846Z,88
2017-04-11T04:20:20.132Z,100
2017-04-11T04:21:30.417Z,108
2017-04-11T04:22:40.711Z,120
2017-04-11T04:23:50.982Z,128
2017-04-11T04:25:01.562Z,140
2017-04-11T04:26:11.852Z,156
2017-04-11T04:27:22.135Z,172
2017-04-11T04:28:32.423Z,184
2017-04-11T04:29:42.707Z,208
2017-04-11T04:30:53.239Z,232
2017-04-11T04:32:03.321Z,256
2017-04-11T04:33:13.602Z,288
2017-04-11T04:34:23.884Z,312
2017-04-11T04:35:34.170Z,356
2017-04-11T04:36:44.446Z,392
2017-04-11T04:37:54.730Z,428
2017-04-11T04:39:04.753Z,448
2017-04-11T04:40:15.034Z,500
2017-04-11T04:41:25.024Z,584
2017-04-11T04:42:35.564Z,596
2017-04-11T04:43:45.226Z,624
2017-04-11T04:44:55.208Z,624
2017-04-11T04:46:05.490Z,672
2017-04-11T04:47:15.809Z,708
2017-04-11T04:48:26.355Z,556
2017-04-11T04:49:36.652Z,600
2017-04-11T04:50:46.664Z,708
2017-04-11T04:51:56.944Z,832
2017-04-11T04:53:07.234Z,568
2017-04-11T04:54:17.780Z,592
2017-04-11T04:55:28.095Z,564
2017-04-11T04:56:38.370Z,608
2017-04-11T04:57:48.673Z,776
2017-04-11T04:58:58.971Z,1292
2017-04-11T05:00:09.199Z,736
2017-04-11T05:01:19.482Z,720
2017-04-11T05:02:29.777Z,964
2017-04-11T05:03:40.262Z,908
2017-04-11T05:04:50.550Z,992
2017-04-11T05:06:01.087Z,1044
2017-04-11T05:07:11.375Z,1728
2017-04-11T05:08:21.669Z,1680
2017-04-11T05:09:31.645Z,1712
2017-04-11T05:10:41.937Z,1756
2017-04-11T05:11:52.169Z,1572
2017-04-11T05:13:02.468Z,980
2017-04-11T05:14:12.447Z,1648
2017-04-11T05:15:22.425Z,1768
2017-04-11T05:16:32.099Z,1732
2017-04-11T05:17:42.629Z,1408
2017-04-11T05:18:52.927Z,2060
2017-04-11T05:20:03.214Z,1660
2017-04-11T05:21:13.503Z,2488
2017-04-11T05:22:23.779Z,1820
2017-04-11T05:23:34.381Z,1324
2017-04-11T05:24:44.359Z,1380
2017-04-11T05:25:54.671Z,1160
2017-04-11T05:27:04.651Z,1100
2017-04-11T05:28:14.943Z,1172
2017-04-11T05:29:25.634Z,2176
2017-04-11T05:30:35.947Z,1348
2017-04-11T05:31:45.923Z,1496
2017-04-11T05:32:56.233Z,1044
2017-04-11T05:34:06.525Z,980
2017-04-11T05:35:17.128Z,1148
2017-04-11T05:36:27.418Z,1216
2017-04-11T05:37:37.698Z,1284
2017-04-11T05:38:47.676Z,1296
2017-04-11T05:39:57.968Z,1208
2017-04-11T05:41:08.504Z,1104
2017-04-11T05:42:18.790Z,1200
2017-04-11T05:43:28.763Z,1272
2017-04-11T05:44:39.058Z,1196
2017-04-11T05:45:49.029Z,1144
2017-04-11T05:46:59.568Z,1276
2017-04-11T05:48:09.848Z,1244
2017-04-11T05:49:20.144Z,1340
2017-04-11T05:50:30.434Z,1456
2017-04-11T05:51:40.411Z,1428
2017-04-11T05:52:50.948Z,1432
2017-04-11T05:54:01.250Z,1328
2017-04-11T05:55:11.551Z,1376
2017-04-11T05:56:21.211Z,1376
2017-04-11T05:57:31.591Z,1360
2017-04-11T05:58:42.021Z,1392
2017-04-11T05:59:52.311Z,1412
2017-04-11T06:01:02.281Z,1588
2017-04-11T06:02:12.577Z,1552
2017-04-11T06:03:22.569Z,1580
2017-04-11T06:04:33.104Z,1444
2017-04-11T06:05:43.385Z,1324
2017-04-11T06:06:53.886Z,1512
2017-04-11T06:08:03.868Z,1716
2017-04-11T06:09:14.149Z,1484
2017-04-11T06:10:24.732Z,1464
2017-04-11T06:11:35.020Z,1384
2017-04-11T06:12:44.998Z,1368
2017-04-11T06:13:55.298Z,1464
2017-04-11T06:15:05.295Z,1432
2017-04-11T06:16:15.541Z,1588
2017-04-11T06:17:25.832Z,1676
2017-04-11T06:18:36.125Z,1656
2017-04-11T06:19:46.097Z,1716
2017-04-11T06:20:56.078Z,2028
2017-04-11T06:22:06.616Z,1980
2017-04-11T06:23:16.905Z,1812
2017-04-11T06:24:27.196Z,1680
2017-04-11T06:25:37.166Z,1740
2017-04-11T06:26:47.467Z,1864
2017-04-11T06:27:57.749Z,2056
2017-04-11T06:29:08.039Z,2228
2017-04-11T06:30:18.012Z,2096
2017-04-11T06:31:27.983Z,2596
2017-04-11T06:32:38.286Z,2456
2017-04-11T06:33:48.847Z,2188
2017-04-11T06:34:59.123Z,1828
2017-04-11T06:36:09.406Z,2016
2017-04-11T06:37:19.369Z,1996
2017-04-11T06:38:29.035Z,2648
2017-04-11T06:39:39.574Z,2108
2017-04-11T06:40:49.862Z,1568
2017-04-11T06:42:00.143Z,1588
2017-04-11T06:43:10.126Z,2248
2017-04-11T06:44:20.411Z,1728
2017-04-11T06:45:30.942Z,1724
2017-04-11T06:46:41.238Z,1704
2017-04-11T06:47:51.233Z,1320
2017-04-11T06:49:01.221Z,1160
2017-04-11T06:50:11.514Z,1304
2017-04-11T06:51:22.106Z,1348
2017-04-11T06:52:32.393Z,1984
2017-04-11T06:53:42.679Z,1548
2017-04-11T06:54:52.342Z,1576
2017-04-11T06:56:02.335Z,1748
2017-04-11T06:57:12.899Z,2000
2017-04-11T06:58:23.189Z,2004
2017-04-11T06:59:33.568Z,2200
2017-04-11T07:00:43.864Z,2300
2017-04-11T07:01:53.856Z,1964
2017-04-11T07:03:04.395Z,1420
2017-04-11T07:04:14.365Z,1844
2017-04-11T07:05:24.656Z,1752
2017-04-11T07:06:34.373Z,1716
2017-04-11T07:07:44.248Z,1632
2017-04-11T07:08:54.796Z,1616
2017-04-11T07:10:04.830Z,1856
2017-04-11T07:11:15.109Z,1864
2017-04-11T07:12:25.404Z,2068
2017-04-11T07:13:35.068Z,2408
2017-04-11T07:14:45.604Z,2628
2017-04-11T07:15:55.587Z,2752
2017-04-11T07:17:05.875Z,2900
2017-04-11T07:18:15.850Z,2392
2017-04-11T07:19:26.149Z,2480
2017-04-11T07:20:36.692Z,2768
2017-04-11T07:21:46.670Z,2528
2017-04-11T07:22:56.642Z,2460
2017-04-11T07:24:06.612Z,2652
2017-04-11T07:25:16.596Z,2692
2017-04-11T07:26:27.214Z,2664
2017-04-11T07:27:37.499Z,2612
2017-04-11T07:28:47.493Z,2220
2017-04-11T07:29:57.461Z,2512
2017-04-11T07:31:07.127Z,2244
2017-04-11T07:32:17.925Z,2276
2017-04-11T07:33:27.893Z,2676
2017-04-11T07:34:38.209Z,2656
2017-04-11T07:35:47.876Z,2432
2017-04-11T07:36:58.181Z,2164
2017-04-11T07:38:08.713Z,2344
2017-04-11T07:39:18.696Z,2360
2017-04-11T07:40:28.668Z,2040
2017-04-11T07:41:38.957Z,1896
2017-04-11T07:42:48.932Z,1948
2017-04-11T07:43:59.537Z,2048
2017-04-11T07:45:09.521Z,2068
2017-04-11T07:46:19.713Z,2076
2017-04-11T07:47:30.003Z,1500
2017-04-11T07:48:40.304Z,2020
2017-04-11T07:49:50.538Z,2352
2017-04-11T07:51:01.081Z,2432
2017-04-11T07:52:11.053Z,2040
2017-04-11T07:53:20.714Z,1760
2017-04-11T07:54:30.704Z,1480
2017-04-11T07:55:40.976Z,1680
2017-04-11T07:56:51.260Z,1896
2017-04-11T07:58:01.248Z,3164
2017-04-11T07:59:11.218Z,2536
2017-04-11T08:00:21.509Z,1560
2017-04-11T08:01:32.105Z,1600
2017-04-11T08:02:41.792Z,2944
2017-04-11T08:03:51.782Z,1840
2017-04-11T08:05:01.806Z,1828
2017-04-11T08:06:12.109Z,1772
2017-04-11T08:07:22.675Z,1692
2017-04-11T08:08:32.977Z,1096
2017-04-11T08:09:43.279Z,1188
2017-04-11T08:10:53.625Z,1420
2017-04-11T08:12:03.604Z,1268
2017-04-11T08:13:13.843Z,816
2017-04-11T08:14:23.926Z,1036
2017-04-11T08:15:33.906Z,1164
2017-04-11T08:16:44.185Z,1108
2017-04-11T08:17:54.211Z,1500
2017-04-11T08:19:04.452Z,1744
2017-04-11T08:20:15.002Z,1568
2017-04-11T08:21:25.310Z,1468
2017-04-11T08:22:35.618Z,1724
2017-04-11T08:23:45.912Z,2168
2017-04-11T08:24:56.748Z,1856
2017-04-11T08:26:06.413Z,1852
2017-04-11T08:27:16.692Z,1752
2017-04-11T08:28:26.994Z,1728
2017-04-11T08:29:37.306Z,1164
2017-04-11T08:30:48.215Z,1200
2017-04-11T08:31:58.188Z,984
2017-04-11T08:33:08.641Z,1120
2017-04-11T08:34:18.933Z,1604
2017-04-11T08:35:29.240Z,2448
2017-04-11T08:36:39.819Z,2996
2017-04-11T08:37:50.144Z,3028
2017-04-11T08:39:00.871Z,3368
2017-04-11T08:40:11.399Z,2660
2017-04-11T08:41:21.693Z,2680
2017-04-11T08:42:32.234Z,2484
2017-04-11T08:43:41.918Z,2628
2017-04-11T08:44:51.907Z,1784
2017-04-11T08:46:01.887Z,1740
2017-04-11T08:47:11.881Z,2268
2017-04-11T08:48:22.109Z,2356
2017-04-11T08:49:31.779Z,1652
2017-04-11T08:50:42.099Z,1664
2017-04-11T08:51:52.401Z,2604
2017-04-11T08:53:02.379Z,2220
2017-04-11T08:54:12.993Z,2956
2017-04-11T08:55:23.300Z,3488
2017-04-11T08:56:32.973Z,2344
2017-04-11T08:57:43.257Z,1776
2017-04-11T08:58:52.931Z,2508
2017-04-11T09:00:03.486Z,2872
2017-04-11T09:01:13.763Z,1732
2017-04-11T09:02:24.067Z,2156
2017-04-11T09:03:34.359Z,3400
2017-04-11T09:04:43.721Z,4680
2017-04-11T09:05:54.282Z,4388
2017-04-11T09:07:04.260Z,3072
2017-04-11T09:08:14.568Z,2192
2017-04-11T09:09:24.862Z,2112
2017-04-11T09:10:35.135Z,2192
2017-04-11T09:11:45.675Z,1804
2017-04-11T09:12:55.365Z,1748
2017-04-11T09:14:05.693Z,1480
2017-04-11T09:15:15.716Z,1256
2017-04-11T09:16:26.006Z,1536
2017-04-11T09:17:36.541Z,1888
2017-04-11T09:18:46.844Z,2024
2017-04-11T09:19:57.178Z,1936
2017-04-11T09:21:07.476Z,1532
2017-04-11T09:22:17.467Z,1700
2017-04-11T09:23:27.738Z,2764
2017-04-11T09:24:37.399Z,4048
2017-04-11T09:25:47.687Z,3528
2017-04-11T09:26:57.673Z,3292
2017-04-11T09:28:07.647Z,3284
2017-04-11T09:29:18.204Z,3132
2017-04-11T09:30:28.184Z,3420
2017-04-11T09:31:38.469Z,3136
2017-04-11T09:32:48.162Z,3084
2017-04-11T09:33:58.465Z,2744
2017-04-11T09:35:09.069Z,1980
2017-04-11T09:36:19.371Z,2264
2017-04-11T09:37:29.058Z,1940
2017-04-11T09:38:39.066Z,1824
2017-04-11T09:39:49.061Z,2292
2017-04-11T09:40:59.327Z,2380
2017-04-11T09:42:09.670Z,2972
2017-04-11T09:43:19.663Z,3316
2017-04-11T09:44:29.964Z,3620
2017-04-11T09:45:40.248Z,3416
2017-04-11T09:46:50.792Z,2180
2017-04-11T09:48:01.088Z,1760
2017-04-11T09:49:11.110Z,1820
2017-04-11T09:50:21.094Z,1504
2017-04-11T09:51:31.078Z,1532
2017-04-11T09:52:41.667Z,1172
2017-04-11T09:53:51.950Z,1244
2017-04-11T09:55:02.250Z,1136
2017-04-11T09:56:12.230Z,1796
2017-04-11T09:57:22.536Z,2436
2017-04-11T09:58:33.082Z,2060
2017-04-11T09:59:43.085Z,1820
2017-04-11T10:00:53.400Z,1332
2017-04-11T10:02:03.684Z,2036
2017-04-11T10:03:13.672Z,1780
2017-04-11T10:04:24.221Z,2160
2017-04-11T10:05:33.892Z,2280
2017-04-11T10:06:43.894Z,1728
2017-04-11T10:07:53.879Z,1588
2017-04-11T10:09:03.870Z,1692
2017-04-11T10:10:14.464Z,1664
2017-04-11T10:11:24.750Z,1884
2017-04-11T10:12:35.052Z,2428
2017-04-11T10:13:45.360Z,3024
2017-04-11T10:14:55.661Z,3376
2017-04-11T10:16:05.956Z,3588
2017-04-11T10:17:15.942Z,3548
2017-04-11T10:18:26.242Z,2728
2017-04-11T10:19:36.292Z,2424
2017-04-11T10:20:46.602Z,2180
2017-04-11T10:21:57.141Z,1672
2017-04-11T10:23:07.425Z,1476
2017-04-11T10:24:17.415Z,1516
2017-04-11T10:25:27.702Z,1632
2017-04-11T10:26:37.988Z,1928
2017-04-11T10:27:48.281Z,2368
2017-04-11T10:28:57.665Z,2948
2017-04-11T10:30:07.014Z,2520
2017-04-11T10:31:16.990Z,2820
2017-04-11T10:32:27.290Z,3588
2017-04-11T10:33:37.873Z,3684
2017-04-11T10:34:47.566Z,2920
2017-04-11T10:35:57.863Z,2716
2017-04-11T10:37:08.157Z,3272
2017-04-11T10:38:18.136Z,3952
2017-04-11T10:39:28.366Z,3508
2017-04-11T10:40:38.662Z,2696
2017-04-11T10:41:48.979Z,2296
2017-04-11T10:42:59.277Z,1924
2017-04-11T10:44:09.594Z,1436
2017-04-11T10:45:19.825Z,1320
2017-04-11T10:46:30.124Z,1568
2017-04-11T10:47:40.112Z,1760
2017-04-11T10:48:50.431Z,1952
2017-04-11T10:50:00.713Z,2992
2017-04-11T10:51:11.295Z,4020
2017-04-11T10:52:21.283Z,3996
2017-04-11T10:53:31.571Z,3568
2017-04-11T10:54:41.857Z,3784
2017-04-11T10:55:51.839Z,4292
2017-04-11T10:57:02.418Z,4100
2017-04-11T10:58:12.705Z,4144
2017-04-11T10:59:22.992Z,3328
2017-04-11T11:00:32.970Z,2772
2017-04-11T11:01:43.270Z,3096
2017-04-11T11:02:53.552Z,2880
2017-04-11T11:04:03.838Z,3264
2017-04-11T11:05:13.826Z,3528
2017-04-11T11:06:23.495Z,4072
2017-04-11T11:07:33.788Z,3536
2017-04-11T11:08:44.325Z,3552
2017-04-11T11:09:54.635Z,2680
2017-04-11T11:11:04.624Z,2772
2017-04-11T11:12:14.920Z,2572
2017-04-11T11:13:25.216Z,2880
2017-04-11T11:14:35.464Z,3820
2017-04-11T11:15:45.770Z,3724
2017-04-11T11:16:56.068Z,3084
2017-04-11T11:18:06.090Z,2388
2017-04-11T11:19:16.391Z,2240
2017-04-11T11:20:26.933Z,2828
2017-04-11T11:21:37.220Z,3164
2017-04-11T11:22:47.538Z,3540
2017-04-11T11:23:57.516Z,3728
2017-04-11T11:25:07.812Z,4124
2017-04-11T11:26:18.347Z,4200
2017-04-11T11:27:28.314Z,4060
2017-04-11T11:28:38.598Z,3376
2017-04-11T11:29:48.902Z,2660
2017-04-11T11:30:59.192Z,2392
2017-04-11T11:32:09.737Z,2208
2017-04-11T11:33:20.027Z,1788
2017-04-11T11:34:30.329Z,1548
2017-04-11T11:35:40.623Z,1164
2017-04-11T11:36:50.923Z,1268
2017-04-11T11:38:01.198Z,1788
2017-04-11T11:39:11.173Z,2276
2017-04-11T11:40:21.478Z,2228
2017-04-11T11:41:31.455Z,2708
2017-04-11T11:42:41.448Z,3688
2017-04-11T11:43:51.987Z,5116
2017-04-11T11:45:02.296Z,5268
2017-04-11T11:46:12.591Z,5024
2017-04-11T11:47:22.878Z,4460
2017-04-11T11:48:32.571Z,3560
2017-04-11T11:49:43.170Z,3584
2017-04-11T11:50:53.466Z,3644
2017-04-11T11:52:03.753Z,4120
2017-04-11T11:53:13.784Z,3820
2017-04-11T11:54:23.767Z,3308
2017-04-11T11:55:33.993Z,2380
2017-04-11T11:56:43.992Z,1796
2017-04-11T11:57:54.281Z,2088
2017-04-11T11:59:04.578Z,3008
2017-04-11T12:00:14.665Z,3956
2017-04-11T12:01:25.254Z,4396
2017-04-11T12:02:35.569Z,3472
2017-04-11T12:03:45.877Z,3188
2017-04-11T12:04:56.186Z,3688
2017-04-11T12:06:06.526Z,4024
2017-04-11T12:07:17.065Z,4000
2017-04-11T12:08:27.369Z,3596
2017-04-11T12:09:37.573Z,3612
2017-04-11T12:10:47.882Z,3344
2017-04-11T12:11:58.219Z,3192
2017-04-11T12:13:08.502Z,2592
2017-04-11T12:14:18.484Z,1968
2017-04-11T12:15:28.459Z,2296
2017-04-11T12:16:38.760Z,2076
2017-04-11T12:17:48.758Z,1752
2017-04-11T12:18:59.312Z,1832
2017-04-11T12:20:09.598Z,1940
2017-04-11T12:21:19.918Z,1844
2017-04-11T12:22:29.889Z,1288
2017-04-11T12:23:40.188Z,1296
2017-04-11T12:24:50.755Z,1748
2017-04-11T12:26:00.747Z,1928
2017-04-11T12:27:10.740Z,3044
2017-04-11T12:28:20.731Z,3092
2017-04-11T12:29:31.025Z,3348
2017-04-11T12:30:41.419Z,2868
2017-04-11T12:31:51.707Z,2516
2017-04-11T12:33:02.002Z,2392
2017-04-11T12:34:12.022Z,2608
2017-04-11T12:35:22.322Z,2932
2017-04-11T12:36:32.561Z,3532
2017-04-11T12:37:42.853Z,3700
2017-04-11T12:38:53.201Z,3404
2017-04-11T12:40:03.198Z,3332
2017-04-11T12:41:13.188Z,3432
2017-04-11T12:42:23.735Z,3192
2017-04-11T12:43:34.023Z,2940
2017-04-11T12:44:44.329Z,2720
2017-04-11T12:45:54.618Z,2080
2017-04-11T12:47:04.300Z,1684
2017-04-11T12:48:14.532Z,1756
2017-04-11T12:49:24.823Z,2128
2017-04-11T12:50:34.482Z,2408
2017-04-11T12:51:44.142Z,1980
2017-04-11T12:52:54.439Z,1944
2017-04-11T12:54:04.660Z,2284
2017-04-11T12:55:14.641Z,2036
2017-04-11T12:56:24.950Z,1000
2017-04-11T12:57:34.920Z,80
2017-04-11T12:58:45.210Z,48
2017-04-11T12:59:55.444Z,52
2017-04-11T13:01:05.623Z,68
2017-04-11T13:02:15.902Z,64
2017-04-11T13:03:26.192Z,56
2017-04-11T13:04:36.680Z,56
2017-04-11T13:05:46.907Z,56
2017-04-11T13:06:57.194Z,56
2017-04-11T13:08:07.167Z,52
2017-04-11T13:09:17.454Z,52
2017-04-11T13:10:27.426Z,52
2017-04-11T13:11:37.967Z,60
2017-04-11T13:12:48.256Z,84
2017-04-11T13:13:58.247Z,60
2017-04-11T13:15:08.544Z,76
2017-04-11T13:16:18.830Z,84
2017-04-11T13:17:29.106Z,56
2017-04-11T13:18:39.102Z,76
2017-04-11T13:19:49.402Z,56
2017-04-11T13:20:59.068Z,52
2017-04-11T13:22:09.043Z,76
2017-04-11T13:23:19.341Z,84
2017-04-11T13:24:29.329Z,80
2017-04-11T13:25:39.299Z,56
2017-04-11T13:26:49.592Z,60
2017-04-11T13:27:59.259Z,80
2017-04-11T13:29:09.806Z,52
2017-04-11T13:30:20.093Z,68
2017-04-11T13:31:30.090Z,72
2017-04-11T13:32:40.065Z,84
2017-04-11T13:33:50.354Z,60
2017-04-11T13:35:00.324Z,56
2017-04-11T13:36:10.333Z,56
2017-04-11T13:37:20.675Z,68
2017-04-11T13:38:30.958Z,52
2017-04-11T13:39:40.952Z,52
2017-04-11T13:40:50.868Z,60
2017-04-11T13:42:01.157Z,48
2017-04-11T13:43:11.438Z,72
2017-04-11T13:44:21.724Z,72
2017-04-11T13:45:31.707Z,60
2017-04-11T13:46:42.288Z,56
2017-04-11T13:47:52.256Z,68
2017-04-11T13:49:01.917Z,72
2017-04-11T13:50:12.236Z,68
2017-04-11T13:51:22.536Z,48
2017-04-11T13:52:32.442Z,56
2017-04-11T13:53:42.433Z,44
2017-04-11T13:54:52.716Z,48
2017-04-11T13:56:03.001Z,52
2017-04-11T13:57:12.999Z,68
2017-04-11T13:58:23.546Z,64
2017-04-11T13:59:33.215Z,44
2017-04-11T14:00:43.507Z,68
2017-04-11T14:01:53.170Z,64
2017-04-11T14:03:03.152Z,64
2017-04-11T14:04:13.138Z,64
2017-04-11T14:05:23.441Z,64
2017-04-11T14:06:33.730Z,64
2017-04-11T14:07:44.041Z,60
2017-04-11T14:08:54.043Z,64
2017-04-11T14:10:04.594Z,64
2017-04-11T14:11:13.943Z,52
2017-04-11T14:12:24.393Z,40
2017-04-11T14:13:34.372Z,40
2017-04-11T14:14:44.367Z,44
2017-04-11T14:15:54.915Z,36
2017-04-11T14:17:04.901Z,48
2017-04-11T14:18:15.198Z,44
2017-04-11T14:19:25.491Z,44
2017-04-11T14:20:35.470Z,40
2017-04-11T14:21:46.074Z,48
2017-04-11T14:22:56.364Z,44
2017-04-11T14:24:06.662Z,40
2017-04-11T14:25:16.653Z,44
2017-04-11T14:26:26.635Z,44
2017-04-11T14:27:36.923Z,44
2017-04-11T14:28:47.224Z,44
2017-04-11T14:29:56.903Z,44
2017-04-11T14:31:06.904Z,40
2017-04-11T14:32:17.190Z,40
2017-04-11T14:33:27.980Z,44
2017-04-11T14:34:38.277Z,44
2017-04-11T14:35:48.566Z,52
2017-04-11T14:36:58.851Z,48
2017-04-11T14:38:09.339Z,52
2017-04-11T14:39:19.629Z,56
2017-04-11T14:40:29.621Z,60
2017-04-11T14:41:39.914Z,60
2017-04-11T14:42:49.911Z,52
2017-04-11T14:44:00.224Z,40
2017-04-11T14:45:10.780Z,36
2017-04-11T14:46:21.132Z,36
2017-04-11T14:47:31.422Z,32
2017-04-11T14:48:41.104Z,32
2017-04-11T14:49:51.418Z,32
2017-04-11T14:51:01.964Z,32
2017-04-11T14:52:12.259Z,36
2017-04-11T14:53:22.271Z,36
2017-04-11T14:54:32.281Z,36
2017-04-11T14:55:42.579Z,36
2017-04-11T14:56:53.122Z,32
2017-04-11T14:58:03.413Z,28
2017-04-11T14:59:13.721Z,24
2017-04-11T15:00:23.411Z,28
2017-04-11T15:01:33.712Z,24
2017-04-11T15:02:44.268Z,28
2017-04-11T15:03:53.952Z,28
2017-04-11T15:05:03.963Z,32
2017-04-11T15:06:13.952Z,32
2017-04-11T15:07:24.263Z,32
2017-04-11T15:08:34.806Z,32
2017-04-11T15:09:44.790Z,28
2017-04-11T15:10:54.768Z,28
2017-04-11T15:12:05.081Z,28
2017-04-11T15:13:15.077Z,28
2017-04-11T15:14:25.650Z,28
2017-04-11T15:15:35.310Z,24
2017-04-11T15:16:45.609Z,24
2017-04-11T15:17:55.625Z,20
2017-04-11T15:19:05.924Z,20
2017-04-11T15:20:16.163Z,20
2017-04-11T15:21:26.454Z,24
2017-04-11T15:22:36.762Z,28
2017-04-11T15:23:46.446Z,36
2017-04-11T15:24:56.759Z,36
2017-04-11T15:26:07.310Z,36
2017-04-11T15:27:17.353Z,36
2017-04-11T15:28:27.353Z,40
2017-04-11T15:29:37.681Z,40
2017-04-11T15:30:47.998Z,40
2017-04-11T15:31:58.563Z,40
2017-04-11T15:33:08.881Z,40
2017-04-11T15:34:19.248Z,36
2017-04-11T15:35:29.565Z,36
2017-04-11T15:36:39.876Z,36
2017-04-11T15:37:50.512Z,36
2017-04-11T15:39:00.521Z,32
2017-04-11T15:40:10.836Z,32
2017-04-11T15:41:21.142Z,32
2017-04-11T15:42:31.167Z,32
2017-04-11T15:43:41.776Z,32
2017-04-11T15:44:52.143Z,32
2017-04-11T15:46:02.467Z,28
2017-04-11T15:47:12.145Z,32
2017-04-11T15:48:22.160Z,28
2017-04-11T15:49:32.852Z,28
2017-04-11T15:50:43.190Z,28
2017-04-11T15:51:53.500Z,28
2017-04-11T15:53:03.520Z,32
2017-04-11T15:54:13.532Z,28
2017-04-11T15:55:23.485Z,32
2017-04-11T15:56:33.806Z,32
2017-04-11T15:57:43.489Z,28
2017-04-11T15:58:53.169Z,28
2017-04-11T16:00:03.478Z,28
2017-04-11T16:01:14.057Z,28
2017-04-11T16:02:24.057Z,28
2017-04-11T16:03:34.374Z,28
2017-04-11T16:04:44.381Z,28
2017-04-11T16:05:54.682Z,28
2017-04-11T16:07:04.621Z,28
2017-04-11T16:08:14.955Z,24
2017-04-11T16:09:25.274Z,24
2017-04-11T16:10:35.607Z,28
2017-04-11T16:11:45.951Z,24
2017-04-11T16:12:55.957Z,24
2017-04-11T16:14:05.966Z,24